createdAt,value
2018-01-26T00:00:02.987Z,95279
2018-01-26T00:02:31.046Z,95270
2018-01-26T00:04:59.145Z,95266
2018-01-26T00:07:27.974Z,95262
2018-01-26T00:09:56.041Z,95264
2018-01-26T00:12:24.163Z,95262
2018-01-26T00:14:53.061Z,95281
2018-01-26T00:17:21.125Z,95283
2018-01-26T00:19:49.181Z,95278
2018-01-26T00:22:17.305Z,95258
2018-01-26T00:24:45.362Z,95275
2018-01-26T00:27:14.544Z,95270
2018-01-26T00:29:42.666Z,95279
2018-01-26T00:32:10.729Z,95273
2018-01-26T00:34:39.561Z,95266
2018-01-26T00:37:08.407Z,95263
2018-01-26T00:39:36.479Z,95264
2018-01-26T00:42:04.553Z,95264
2018-01-26T00:44:32.598Z,95259
2018-01-26T00:47:00.681Z,95259
2018-01-26T00:49:28.725Z,95260
2018-01-26T00:51:57.573Z,95263
2018-01-26T00:54:25.663Z,95262
2018-01-26T00:56:53.866Z,95267
2018-01-26T00:59:23.825Z,95267
2018-01-26T01:01:51.925Z,95271
2018-01-26T01:04:20.001Z,95268
2018-01-26T01:06:48.108Z,95268
2018-01-26T01:09:17.234Z,95259
2018-01-26T01:11:45.321Z,95273
2018-01-26T01:14:13.373Z,95257
2018-01-26T01:16:42.205Z,95259
2018-01-26T01:19:10.273Z,95251
2018-01-26T01:21:38.374Z,95251
2018-01-26T01:24:06.445Z,95254
2018-01-26T01:26:34.489Z,95255
2018-01-26T01:29:02.549Z,95241
2018-01-26T01:31:31.416Z,95242
2018-01-26T01:33:59.457Z,95241
2018-01-26T01:36:27.509Z,95239
2018-01-26T01:38:55.571Z,95226
2018-01-26T01:41:24.108Z,95220
2018-01-26T01:43:52.184Z,95218
2018-01-26T01:46:20.261Z,95232
2018-01-26T01:49:06.297Z,95213
2018-01-26T01:51:34.798Z,95218
2018-01-26T01:54:02.946Z,95223
2018-01-26T01:56:31.810Z,95216
2018-01-26T01:58:59.910Z,95219
2018-01-26T02:01:27.950Z,95211
2018-01-26T02:03:56.323Z,95220
2018-01-26T02:06:25.944Z,95218
2018-01-26T02:08:54.445Z,95207
2018-01-26T02:11:22.514Z,95196
2018-01-26T02:13:50.590Z,95185
2018-01-26T02:16:18.669Z,95184
2018-01-26T02:18:46.731Z,95191
2018-01-26T02:21:14.817Z,95182
2018-01-26T02:24:07.830Z,95193
2018-01-26T02:26:35.985Z,95198
2018-01-26T02:29:04.800Z,95189
2018-01-26T02:31:32.854Z,95190
2018-01-26T02:34:01.680Z,95181
2018-01-26T02:36:29.729Z,95183
2018-01-26T02:38:58.235Z,95181
2018-01-26T02:41:26.282Z,95190
2018-01-26T02:43:54.930Z,95191
2018-01-26T02:46:23.405Z,95206
2018-01-26T02:48:51.470Z,95186
2018-01-26T02:51:19.534Z,95203
2018-01-26T02:53:47.587Z,95190
2018-01-26T02:56:17.926Z,95193
2018-01-26T02:58:46.760Z,95190
2018-01-26T03:01:14.804Z,95196
2018-01-26T03:03:42.853Z,95187
2018-01-26T03:06:11.675Z,95183
2018-01-26T03:08:39.789Z,95176
2018-01-26T03:11:07.856Z,95180
2018-01-26T03:13:35.917Z,95176
2018-01-26T03:16:04.019Z,95163
2018-01-26T03:18:32.068Z,95174
2018-01-26T03:21:01.066Z,95177
2018-01-26T03:23:29.154Z,95172
2018-01-26T03:25:57.210Z,95181
2018-01-26T03:28:26.283Z,95185
2018-01-26T03:30:56.218Z,95184
2018-01-26T03:33:25.383Z,95191
2018-01-26T03:35:54.214Z,95185
2018-01-26T03:38:22.298Z,95184
2018-01-26T03:40:50.383Z,95183
2018-01-26T03:43:18.457Z,95174
2018-01-26T03:45:46.490Z,95180
2018-01-26T03:48:14.544Z,95183
2018-01-26T03:50:42.634Z,95176
2018-01-26T03:53:13.611Z,95177
2018-01-26T03:55:41.666Z,95186
2018-01-26T03:58:10.525Z,95181
2018-01-26T04:00:38.703Z,95174
2018-01-26T04:03:06.758Z,95177
2018-01-26T04:05:34.838Z,95180
2018-01-26T04:08:02.897Z,95181
2018-01-26T04:10:30.941Z,95181
2018-01-26T04:12:59.006Z,95169
2018-01-26T04:15:27.839Z,95179
2018-01-26T04:17:57.045Z,95161
2018-01-26T04:20:26.300Z,95158
2018-01-26T04:22:54.341Z,95153
2018-01-26T04:25:22.399Z,95153
2018-01-26T04:27:50.453Z,95137
2018-01-26T04:30:19.272Z,95135
2018-01-26T04:32:47.357Z,95134
2018-01-26T04:35:15.419Z,95140
2018-01-26T04:37:43.471Z,95147
2018-01-26T04:40:12.311Z,95152
2018-01-26T04:42:42.775Z,95145
2018-01-26T04:45:11.597Z,95169
2018-01-26T04:47:39.670Z,95165
2018-01-26T04:50:08.486Z,95158
2018-01-26T04:52:36.594Z,95152
2018-01-26T04:55:04.632Z,95159
2018-01-26T04:57:32.753Z,95152
2018-01-26T05:00:00.945Z,95153
2018-01-26T05:02:29.018Z,95156
2018-01-26T05:04:57.065Z,95155
2018-01-26T05:07:25.125Z,95160
2018-01-26T05:09:53.161Z,95158
2018-01-26T05:12:22.025Z,95161
2018-01-26T05:14:50.101Z,95164
2018-01-26T05:17:18.157Z,95161
2018-01-26T05:19:47.157Z,95176
2018-01-26T05:22:15.229Z,95170
2018-01-26T05:24:43.285Z,95175
2018-01-26T05:27:11.335Z,95181
2018-01-26T05:29:39.434Z,95177
2018-01-26T05:32:07.446Z,95188
2018-01-26T05:34:35.529Z,95191
2018-01-26T05:37:03.589Z,95193
2018-01-26T05:39:31.654Z,95195
2018-01-26T05:41:59.732Z,95186
2018-01-26T05:44:28.656Z,95193
2018-01-26T05:46:57.549Z,95198
2018-01-26T05:49:25.620Z,95189
2018-01-26T05:51:53.666Z,95201
2018-01-26T05:54:21.750Z,95219
2018-01-26T05:56:49.786Z,95208
2018-01-26T05:59:18.625Z,95209
2018-01-26T06:01:46.669Z,95210
2018-01-26T06:04:14.795Z,95222
2018-01-26T06:06:42.881Z,95218
2018-01-26T06:09:10.945Z,95222
2018-01-26T06:11:39.011Z,95224
2018-01-26T06:14:07.111Z,95228
2018-01-26T06:16:35.170Z,95230
2018-01-26T06:19:03.354Z,95234
2018-01-26T06:21:31.438Z,95234
2018-01-26T06:23:59.505Z,95227
2018-01-26T06:26:27.553Z,95231
2018-01-26T06:28:55.597Z,95234
2018-01-26T06:31:24.430Z,95220
2018-01-26T06:33:52.530Z,95235
2018-01-26T06:36:20.582Z,95223
2018-01-26T06:38:48.677Z,95219
2018-01-26T06:41:16.737Z,95219
2018-01-26T06:43:44.781Z,95213
2018-01-26T06:46:13.625Z,95209
2018-01-26T06:48:41.695Z,95210
2018-01-26T06:51:09.781Z,95209
2018-01-26T06:53:37.847Z,95205
2018-01-26T06:56:05.914Z,95204
2018-01-26T06:58:34.013Z,95208
2018-01-26T07:01:02.070Z,95206
2018-01-26T07:03:30.130Z,95207
2018-01-26T07:05:58.257Z,95206
2018-01-26T07:08:26.341Z,95206
2018-01-26T07:10:54.792Z,95198
2018-01-26T07:13:22.866Z,95208
2018-01-26T07:15:50.937Z,95204
2018-01-26T07:18:18.989Z,95222
2018-01-26T07:20:47.098Z,95214
2018-01-26T07:23:15.158Z,95202
2018-01-26T07:25:43.230Z,95209
2018-01-26T07:28:11.299Z,95204
2018-01-26T07:30:39.369Z,95194
2018-01-26T07:33:08.679Z,95193
2018-01-26T07:35:36.890Z,95186
2018-01-26T07:38:04.942Z,95196
2018-01-26T07:40:33.007Z,95212
2018-01-26T07:43:01.117Z,95217
2018-01-26T07:45:30.319Z,95227
2018-01-26T07:47:58.398Z,95230
2018-01-26T07:50:26.472Z,95224
2018-01-26T07:52:54.526Z,95225
2018-01-26T07:55:23.340Z,95228
2018-01-26T07:57:51.424Z,95223
2018-01-26T08:00:19.485Z,95229
2018-01-26T08:02:47.729Z,95223
2018-01-26T08:05:16.576Z,95229
2018-01-26T08:07:44.633Z,95220
2018-01-26T08:10:12.688Z,95229
2018-01-26T08:12:40.802Z,95214
2018-01-26T08:15:08.881Z,95208
2018-01-26T08:17:36.946Z,95235
2018-01-26T08:20:04.997Z,95231
2018-01-26T08:22:33.093Z,95220
2018-01-26T08:25:02.054Z,95229
2018-01-26T08:27:30.811Z,95230
2018-01-26T08:30:01.486Z,95222
2018-01-26T08:32:29.538Z,95226
2018-01-26T08:34:59.332Z,95227
2018-01-26T08:37:27.385Z,95227
2018-01-26T08:39:55.494Z,95221
2018-01-26T08:42:23.662Z,95220
2018-01-26T08:44:52.305Z,95215
2018-01-26T08:47:20.378Z,95208
2018-01-26T08:49:48.628Z,95203
2018-01-26T08:52:16.730Z,95202
2018-01-26T08:54:44.785Z,95211
2018-01-26T08:57:13.614Z,95211
2018-01-26T08:59:41.753Z,95211
2018-01-26T09:02:10.440Z,95230
2018-01-26T09:04:38.491Z,95232
2018-01-26T09:07:07.089Z,95241
2018-01-26T09:09:35.214Z,95242
2018-01-26T09:12:03.373Z,95240
2018-01-26T09:14:31.753Z,95247
2018-01-26T09:17:01.869Z,95245
2018-01-26T09:19:31.841Z,95245
2018-01-26T09:21:59.913Z,95243
2018-01-26T09:24:28.172Z,95234
2018-01-26T09:26:56.402Z,95236
2018-01-26T09:29:24.683Z,95237
2018-01-26T09:31:52.866Z,95243
2018-01-26T09:34:20.913Z,95245
2018-01-26T09:36:49.089Z,95251
2018-01-26T09:39:17.249Z,95249
2018-01-26T09:41:45.377Z,95243
2018-01-26T09:44:13.526Z,95241
2018-01-26T09:46:41.625Z,95244
2018-01-26T09:49:09.794Z,95257
2018-01-26T09:51:37.857Z,95249
2018-01-26T09:54:05.969Z,95246
2018-01-26T09:56:34.046Z,95242
2018-01-26T09:59:02.354Z,95238
2018-01-26T10:01:30.493Z,95241
2018-01-26T10:03:58.830Z,95237
2018-01-26T10:06:27.124Z,95231
2018-01-26T10:08:55.370Z,95243
2018-01-26T10:11:24.213Z,95253
2018-01-26T10:13:52.289Z,95254
2018-01-26T10:16:20.441Z,95260
2018-01-26T10:18:48.497Z,95269
2018-01-26T10:21:16.626Z,95264
2018-01-26T10:23:45.131Z,95255
2018-01-26T10:26:13.198Z,95252
2018-01-26T10:28:41.250Z,95249
2018-01-26T10:31:09.301Z,95252
2018-01-26T10:33:37.377Z,95248
2018-01-26T10:36:05.442Z,95260
2018-01-26T10:38:34.289Z,95251
2018-01-26T10:41:02.988Z,95252
2018-01-26T10:43:31.060Z,95273
2018-01-26T10:45:59.222Z,95251
2018-01-26T10:48:27.285Z,95250
2018-01-26T10:50:56.067Z,95258
2018-01-26T10:53:24.177Z,95269
2018-01-26T10:55:52.426Z,95272
2018-01-26T10:58:20.502Z,95274
2018-01-26T11:00:48.562Z,95266
2018-01-26T11:03:16.679Z,95260
2018-01-26T11:05:44.741Z,95269
2018-01-26T11:08:12.826Z,95278
2018-01-26T11:10:40.895Z,95264
2018-01-26T11:13:08.965Z,95274
2018-01-26T11:15:37.053Z,95278
2018-01-26T11:18:05.227Z,95281
2018-01-26T11:20:33.532Z,95277
2018-01-26T11:23:01.598Z,95278
2018-01-26T11:25:29.653Z,95277
2018-01-26T11:27:57.742Z,95286
2018-01-26T11:30:25.833Z,95295
2018-01-26T11:32:54.006Z,95302
2018-01-26T11:35:22.082Z,95283
2018-01-26T11:37:50.160Z,95294
2018-01-26T11:40:18.225Z,95297
2018-01-26T11:42:46.296Z,95306
2018-01-26T11:45:14.356Z,95313
2018-01-26T11:47:42.432Z,95302
2018-01-26T11:50:10.907Z,95303
2018-01-26T11:52:39.022Z,95302
2018-01-26T11:55:07.065Z,95296
2018-01-26T11:57:35.145Z,95304
2018-01-26T12:00:04.870Z,95299
2018-01-26T12:02:34.865Z,95308
2018-01-26T12:05:04.814Z,95299
2018-01-26T12:07:32.896Z,95302
2018-01-26T12:10:00.957Z,95300
2018-01-26T12:12:29.562Z,95298
2018-01-26T12:14:57.653Z,95301
2018-01-26T12:17:25.732Z,95305
2018-01-26T12:19:53.786Z,95290
2018-01-26T12:22:21.866Z,95316
2018-01-26T12:24:50.355Z,95306
2018-01-26T12:27:18.855Z,95309
2018-01-26T12:29:47.241Z,95313
2018-01-26T12:32:15.733Z,95324
2018-01-26T12:34:44.215Z,95323
2018-01-26T12:37:12.412Z,95320
2018-01-26T12:39:40.462Z,95328
2018-01-26T12:42:08.602Z,95323
2018-01-26T12:44:36.783Z,95323
2018-01-26T12:47:05.702Z,95327
2018-01-26T12:49:34.965Z,95331
2018-01-26T12:52:03.041Z,95328
2018-01-26T12:54:31.216Z,95323
2018-01-26T12:57:00.080Z,95321
2018-01-26T12:59:28.281Z,95320
2018-01-26T13:01:56.472Z,95334
2018-01-26T13:04:25.363Z,95330
2018-01-26T13:06:54.417Z,95338
2018-01-26T13:09:22.489Z,95338
2018-01-26T13:11:50.616Z,95346
2018-01-26T13:14:19.616Z,95347
2018-01-26T13:16:48.444Z,95348
2018-01-26T13:19:16.551Z,95350
2018-01-26T13:21:44.655Z,95351
2018-01-26T13:24:13.524Z,95350
2018-01-26T13:26:41.735Z,95343
2018-01-26T13:29:10.573Z,95350
2018-01-26T13:31:38.810Z,95346
2018-01-26T13:34:07.745Z,95348
2018-01-26T13:36:35.852Z,95347
2018-01-26T13:39:03.989Z,95341
2018-01-26T13:41:32.127Z,95346
2018-01-26T13:44:00.274Z,95357
2018-01-26T13:46:28.385Z,95360
2018-01-26T13:48:57.254Z,95354
2018-01-26T13:51:25.470Z,95360
2018-01-26T13:53:53.593Z,95355
2018-01-26T13:56:21.674Z,95349
2018-01-26T13:58:49.741Z,95364
2018-01-26T14:01:17.817Z,95363
2018-01-26T14:03:45.907Z,95357
2018-01-26T14:06:13.994Z,95371
2018-01-26T14:08:42.126Z,95365
2018-01-26T14:11:10.525Z,95373
2018-01-26T14:13:38.620Z,95386
2018-01-26T14:16:06.977Z,95387
2018-01-26T14:18:36.178Z,95381
2018-01-26T14:21:04.288Z,95374
2018-01-26T14:23:32.359Z,95377
2018-01-26T14:26:00.492Z,95381
2018-01-26T14:28:28.723Z,95374
2018-01-26T14:30:57.010Z,95390
2018-01-26T14:33:25.190Z,95381
2018-01-26T14:35:53.353Z,95387
2018-01-26T14:38:22.566Z,95392
2018-01-26T14:40:50.985Z,95396
2018-01-26T14:43:19.829Z,95400
2018-01-26T14:45:48.010Z,95402
2018-01-26T14:48:16.182Z,95400
2018-01-26T14:50:44.358Z,95412
2018-01-26T14:53:12.441Z,95414
2018-01-26T14:55:40.510Z,95410
2018-01-26T14:58:09.414Z,95426
2018-01-26T15:00:37.590Z,95415
2018-01-26T15:03:05.665Z,95422
2018-01-26T15:05:33.729Z,95421
2018-01-26T15:08:01.836Z,95430
2018-01-26T15:10:29.937Z,95432
2018-01-26T15:12:57.970Z,95434
2018-01-26T15:15:26.037Z,95420
2018-01-26T15:17:54.123Z,95442
2018-01-26T15:20:23.137Z,95441
2018-01-26T15:22:51.245Z,95454
2018-01-26T15:25:20.126Z,95453
2018-01-26T15:27:48.169Z,95467
2018-01-26T15:30:18.606Z,95466
2018-01-26T15:32:46.778Z,95471
2018-01-26T15:35:14.865Z,95472
2018-01-26T15:37:42.901Z,95480
2018-01-26T15:40:11.043Z,95476
2018-01-26T15:42:39.468Z,95490
2018-01-26T15:45:08.398Z,95494
2018-01-26T15:47:36.978Z,95495
2018-01-26T15:50:05.099Z,95496
2018-01-26T15:52:34.010Z,95484
2018-01-26T15:55:02.081Z,95490
2018-01-26T15:57:30.960Z,95504
2018-01-26T16:00:00.585Z,95496
2018-01-26T16:02:29.461Z,95494
2018-01-26T16:04:59.957Z,95496
2018-01-26T16:07:28.097Z,95494
2018-01-26T16:09:56.184Z,95510
2018-01-26T16:12:25.287Z,95506
2018-01-26T16:14:53.347Z,95519
2018-01-26T16:17:21.469Z,95530
2018-01-26T16:19:49.569Z,95517
2018-01-26T16:22:17.769Z,95526
2018-01-26T16:24:46.666Z,95529
2018-01-26T16:27:15.636Z,95530
2018-01-26T16:29:43.751Z,95533
2018-01-26T16:32:11.861Z,95531
2018-01-26T16:34:39.911Z,95538
2018-01-26T16:37:10.333Z,95541
2018-01-26T16:39:39.582Z,95534
2018-01-26T16:42:08.805Z,95538
2018-01-26T16:44:37.018Z,95539
2018-01-26T16:47:05.122Z,95562
2018-01-26T16:49:33.223Z,95552
2018-01-26T16:52:01.435Z,95566
2018-01-26T16:54:30.285Z,95575
2018-01-26T16:56:59.028Z,95572
2018-01-26T16:59:27.917Z,95577
2018-01-26T17:01:56.812Z,95579
2018-01-26T17:04:25.618Z,95582
2018-01-26T17:06:54.154Z,95586
2018-01-26T17:09:22.200Z,95593
2018-01-26T17:11:51.226Z,95595
2018-01-26T17:14:19.296Z,95591
2018-01-26T17:16:47.520Z,95610
2018-01-26T17:19:16.370Z,95609
2018-01-26T17:21:44.434Z,95614
2018-01-26T17:24:12.513Z,95623
2018-01-26T17:26:40.580Z,95623
2018-01-26T17:29:09.627Z,95618
2018-01-26T17:31:37.681Z,95629
2018-01-26T17:34:05.853Z,95624
2018-01-26T17:36:33.929Z,95619
2018-01-26T17:39:02.002Z,95630
2018-01-26T17:41:30.120Z,95627
2018-01-26T17:43:58.965Z,95637
2018-01-26T17:46:27.051Z,95644
2018-01-26T17:48:55.160Z,95637
2018-01-26T17:51:23.196Z,95640
2018-01-26T17:53:51.261Z,95639
2018-01-26T17:56:19.342Z,95635
2018-01-26T17:58:47.405Z,95643
2018-01-26T18:01:15.461Z,95643
2018-01-26T18:03:43.652Z,95650
2018-01-26T18:06:11.757Z,95656
2018-01-26T18:08:40.432Z,95653
2018-01-26T18:11:08.533Z,95663
2018-01-26T18:13:36.620Z,95647
2018-01-26T18:16:04.685Z,95658
2018-01-26T18:18:32.913Z,95651
2018-01-26T18:21:01.039Z,95650
2018-01-26T18:23:29.183Z,95655
2018-01-26T18:25:57.290Z,95661
2018-01-26T18:28:25.358Z,95656
2018-01-26T18:30:53.426Z,95663
2018-01-26T18:33:21.527Z,95671
2018-01-26T18:35:49.641Z,95685
2018-01-26T18:38:18.453Z,95686
2018-01-26T18:40:46.626Z,95689
2018-01-26T18:43:15.447Z,95686
2018-01-26T18:45:43.513Z,95694
2018-01-26T18:48:11.590Z,95704
2018-01-26T18:50:39.713Z,95689
2018-01-26T18:53:07.808Z,95696
2018-01-26T18:55:35.949Z,95697
2018-01-26T18:58:04.018Z,95700
2018-01-26T19:00:32.124Z,95692
2018-01-26T19:03:00.221Z,95693
2018-01-26T19:05:29.127Z,95682
2018-01-26T19:07:57.946Z,95682
2018-01-26T19:10:26.064Z,95686
2018-01-26T19:12:54.157Z,95687
2018-01-26T19:15:23.057Z,95697
2018-01-26T19:17:51.961Z,95701
2018-01-26T19:20:20.843Z,95716
2018-01-26T19:22:49.674Z,95708
2018-01-26T19:25:17.817Z,95714
2018-01-26T19:27:46.657Z,95714
2018-01-26T19:30:14.759Z,95716
2018-01-26T19:32:42.861Z,95706
2018-01-26T19:35:11.990Z,95718
2018-01-26T19:37:40.116Z,95717
2018-01-26T19:40:08.249Z,95706
2018-01-26T19:42:36.337Z,95727
2018-01-26T19:45:04.432Z,95724
2018-01-26T19:47:32.616Z,95711
2018-01-26T19:50:01.467Z,95724
2018-01-26T19:52:29.620Z,95733
2018-01-26T19:54:57.748Z,95743
2018-01-26T19:57:25.805Z,95736
2018-01-26T19:59:53.914Z,95738
2018-01-26T20:02:22.077Z,95751
2018-01-26T20:08:37.465Z,95766
2018-01-26T20:11:05.521Z,95753
2018-01-26T20:13:33.647Z,95776
2018-01-26T20:16:02.526Z,95776
2018-01-26T20:18:30.596Z,95775
2018-01-26T20:21:00.014Z,95779
2018-01-26T20:23:28.899Z,95781
2018-01-26T20:25:56.992Z,95772
2018-01-26T20:28:25.910Z,95781
2018-01-26T20:30:54.030Z,95782
2018-01-26T20:33:22.145Z,95789
2018-01-26T20:35:51.088Z,95784
2018-01-26T20:38:19.208Z,95795
2018-01-26T20:40:47.397Z,95790
2018-01-26T20:43:16.304Z,95800
2018-01-26T20:45:45.172Z,95816
2018-01-26T20:48:14.204Z,95808
2018-01-26T20:50:43.484Z,95812
2018-01-26T20:53:14.213Z,95798
2018-01-26T20:55:44.309Z,95805
2018-01-26T20:58:13.541Z,95808
2018-01-26T21:00:41.663Z,95808
2018-01-26T21:03:09.769Z,95814
2018-01-26T21:05:37.868Z,95821
2018-01-26T21:08:06.017Z,95825
2018-01-26T21:10:34.147Z,95825
2018-01-26T21:13:03.034Z,95827
2018-01-26T21:15:31.858Z,95836
2018-01-26T21:17:59.972Z,95842
2018-01-26T21:20:28.088Z,95835
2018-01-26T21:22:56.974Z,95851
2018-01-26T21:25:28.817Z,95852
2018-01-26T21:27:56.965Z,95843
2018-01-26T21:30:25.112Z,95859
2018-01-26T21:32:53.275Z,95853
2018-01-26T21:35:22.150Z,95857
2018-01-26T21:37:50.205Z,95854
2018-01-26T21:40:18.349Z,95857
2018-01-26T21:42:46.452Z,95851
2018-01-26T21:45:14.601Z,95860
2018-01-26T21:47:42.716Z,95867
2018-01-26T21:50:10.925Z,95862
2018-01-26T21:52:39.105Z,95859
2018-01-26T21:55:08.000Z,95863
2018-01-26T21:57:36.113Z,95873
2018-01-26T22:00:04.223Z,95876
2018-01-26T22:02:32.329Z,95878
2018-01-26T22:05:05.881Z,95889
2018-01-26T22:07:40.050Z,95885
2018-01-26T22:10:09.709Z,95898
2018-01-26T22:12:37.824Z,95905
2018-01-26T22:15:05.862Z,95897
2018-01-26T22:17:33.999Z,95901
2018-01-26T22:20:02.860Z,95905
2018-01-26T22:22:30.988Z,95916
2018-01-26T22:24:59.132Z,95920
2018-01-26T22:27:27.196Z,95920
2018-01-26T22:29:55.242Z,95931
2018-01-26T22:32:23.310Z,95918
2018-01-26T22:34:51.449Z,95934
2018-01-26T22:37:20.324Z,95942
2018-01-26T22:39:48.521Z,95943
2018-01-26T22:42:17.346Z,95944
2018-01-26T22:44:45.723Z,95939
2018-01-26T22:47:13.872Z,95941
2018-01-26T22:49:41.987Z,95958
2018-01-26T22:52:10.088Z,95953
2018-01-26T22:54:38.137Z,95964
2018-01-26T22:57:06.210Z,95967
2018-01-26T22:59:34.261Z,95960
2018-01-26T23:02:03.094Z,95970
2018-01-26T23:04:31.181Z,95964
2018-01-26T23:06:59.248Z,95978
2018-01-26T23:09:27.301Z,95967
2018-01-26T23:11:55.374Z,95974
2018-01-26T23:14:23.492Z,95977
2018-01-26T23:16:51.541Z,95983
2018-01-26T23:19:19.597Z,95997
2018-01-26T23:21:47.725Z,95981
2018-01-26T23:24:17.244Z,95985
2018-01-26T23:26:46.493Z,95993
2018-01-26T23:29:14.643Z,96003
2018-01-26T23:31:42.834Z,96008
2018-01-26T23:34:11.707Z,96015
2018-01-26T23:36:41.319Z,96025
2018-01-26T23:39:10.187Z,96028
2018-01-26T23:41:38.304Z,96027
2018-01-26T23:44:06.341Z,96020
2018-01-26T23:46:34.413Z,96028
2018-01-26T23:49:02.499Z,96020
2018-01-26T23:51:30.669Z,96022
2018-01-26T23:53:58.787Z,96024
2018-01-26T23:56:27.659Z,96020
2018-01-26T23:58:55.746Z,96027
